sensor_id;sensor_type;location;lat;lon;timestamp;pressure;altitude;pressure_sealevel;temperature
57468;BMP280;43311;51.196;7.518;2023-09-19T00:00:26;96256.19;;;14.50
57468;BMP280;43311;51.196;7.518;2023-09-19T00:02:56;96285.78;;;14.54
57468;BMP280;43311;51.196;7.518;2023-09-19T00:05:26;96283.16;;;14.54
57468;BMP280;43311;51.196;7.518;2023-09-19T00:07:54;96286.78;;;14.39
57468;BMP280;43311;51.196;7.518;2023-09-19T00:10:21;96291.66;;;14.49
57468;BMP280;43311;51.196;7.518;2023-09-19T00:12:53;96273.59;;;14.30
57468;BMP280;43311;51.196;7.518;2023-09-19T00:15:23;96292.81;;;14.39
57468;BMP280;43311;51.196;7.518;2023-09-19T00:17:48;96266.13;;;14.37
57468;BMP280;43311;51.196;7.518;2023-09-19T00:20:14;96274.63;;;14.41
57468;BMP280;43311;51.196;7.518;2023-09-19T00:22:44;96272.56;;;14.28
57468;BMP280;43311;51.196;7.518;2023-09-19T00:25:10;96298.69;;;14.43
57468;BMP280;43311;51.196;7.518;2023-09-19T00:27:40;96283.13;;;14.28
57468;BMP280;43311;51.196;7.518;2023-09-19T00:30:12;96286.94;;;14.35
57468;BMP280;43311;51.196;7.518;2023-09-19T00:32:50;96279.88;;;14.24
57468;BMP280;43311;51.196;7.518;2023-09-19T00:35:20;96300.41;;;14.29
57468;BMP280;43311;51.196;7.518;2023-09-19T00:37:47;96299.97;;;14.30
57468;BMP280;43311;51.196;7.518;2023-09-19T00:40:13;96311.25;;;14.31
57468;BMP280;43311;51.196;7.518;2023-09-19T00:42:43;96305.53;;;14.23
57468;BMP280;43311;51.196;7.518;2023-09-19T00:45:10;96305.34;;;14.18
57468;BMP280;43311;51.196;7.518;2023-09-19T00:47:43;96313.44;;;14.23
57468;BMP280;43311;51.196;7.518;2023-09-19T00:50:09;96316.78;;;14.24
57468;BMP280;43311;51.196;7.518;2023-09-19T00:52:39;96314.00;;;14.18
57468;BMP280;43311;51.196;7.518;2023-09-19T00:55:07;96314.84;;;14.15
57468;BMP280;43311;51.196;7.518;2023-09-19T00:57:34;96319.97;;;14.10
57468;BMP280;43311;51.196;7.518;2023-09-19T01:00:00;96324.91;;;14.08
57468;BMP280;43311;51.196;7.518;2023-09-19T01:02:31;96318.16;;;13.98
57468;BMP280;43311;51.196;7.518;2023-09-19T01:04:57;96332.22;;;14.04
57468;BMP280;43311;51.196;7.518;2023-09-19T01:07:23;96330.28;;;13.95
57468;BMP280;43311;51.196;7.518;2023-09-19T01:09:49;96340.00;;;14.07
57468;BMP280;43311;51.196;7.518;2023-09-19T01:12:19;96341.56;;;13.96
57468;BMP280;43311;51.196;7.518;2023-09-19T01:14:54;96344.50;;;13.98
57468;BMP280;43311;51.196;7.518;2023-09-19T01:17:30;96338.44;;;14.10
57468;BMP280;43311;51.196;7.518;2023-09-19T01:20:06;96332.94;;;13.95
57468;BMP280;43311;51.196;7.518;2023-09-19T01:22:53;96334.06;;;13.85
57468;BMP280;43311;51.196;7.518;2023-09-19T01:25:46;96321.59;;;13.77
57468;BMP280;43311;51.196;7.518;2023-09-19T01:30:56;96338.25;;;13.74
57468;BMP280;43311;51.196;7.518;2023-09-19T01:33:26;96339.41;;;13.73
57468;BMP280;43311;51.196;7.518;2023-09-19T01:35:52;96323.09;;;13.57
57468;BMP280;43311;51.196;7.518;2023-09-19T01:38:21;96345.56;;;13.79
57468;BMP280;43311;51.196;7.518;2023-09-19T01:41:07;96335.94;;;13.85
57468;BMP280;43311;51.196;7.518;2023-09-19T01:43:38;96350.03;;;13.91
57468;BMP280;43311;51.196;7.518;2023-09-19T01:46:13;96334.47;;;13.84
57468;BMP280;43311;51.196;7.518;2023-09-19T01:48:52;96348.84;;;13.83
57468;BMP280;43311;51.196;7.518;2023-09-19T01:51:43;96337.63;;;13.70
57468;BMP280;43311;51.196;7.518;2023-09-19T01:54:12;96338.13;;;13.77
57468;BMP280;43311;51.196;7.518;2023-09-19T01:56:48;96346.34;;;13.79
57468;BMP280;43311;51.196;7.518;2023-09-19T01:59:30;96350.72;;;13.82
57468;BMP280;43311;51.196;7.518;2023-09-19T02:01:58;96358.34;;;13.80
57468;BMP280;43311;51.196;7.518;2023-09-19T02:04:24;96341.78;;;13.80
57468;BMP280;43311;51.196;7.518;2023-09-19T02:06:52;96352.44;;;13.76
57468;BMP280;43311;51.196;7.518;2023-09-19T02:09:18;96363.13;;;13.73
57468;BMP280;43311;51.196;7.518;2023-09-19T02:11:44;96361.13;;;13.86
57468;BMP280;43311;51.196;7.518;2023-09-19T02:14:09;96366.66;;;13.79
57468;BMP280;43311;51.196;7.518;2023-09-19T02:16:35;96363.13;;;13.73
57468;BMP280;43311;51.196;7.518;2023-09-19T02:19:00;96374.41;;;13.73
57468;BMP280;43311;51.196;7.518;2023-09-19T02:21:30;96352.22;;;13.62
57468;BMP280;43311;51.196;7.518;2023-09-19T02:23:56;96370.47;;;13.78
57468;BMP280;43311;51.196;7.518;2023-09-19T02:26:21;96372.81;;;13.76
57468;BMP280;43311;51.196;7.518;2023-09-19T02:28:50;96378.63;;;13.71
57468;BMP280;43311;51.196;7.518;2023-09-19T02:31:15;96376.13;;;13.67
57468;BMP280;43311;51.196;7.518;2023-09-19T02:33:42;96373.06;;;13.69
57468;BMP280;43311;51.196;7.518;2023-09-19T02:36:07;96364.00;;;13.70
57468;BMP280;43311;51.196;7.518;2023-09-19T02:38:34;96375.00;;;13.77
57468;BMP280;43311;51.196;7.518;2023-09-19T02:40:59;96374.28;;;13.77
57468;BMP280;43311;51.196;7.518;2023-09-19T02:43:24;96371.34;;;13.75
57468;BMP280;43311;51.196;7.518;2023-09-19T02:45:51;96371.09;;;13.82
57468;BMP280;43311;51.196;7.518;2023-09-19T02:48:18;96353.19;;;13.77
57468;BMP280;43311;51.196;7.518;2023-09-19T02:50:45;96379.91;;;13.66
57468;BMP280;43311;51.196;7.518;2023-09-19T02:53:11;96370.41;;;13.69
57468;BMP280;43311;51.196;7.518;2023-09-19T02:55:38;96368.34;;;13.64
57468;BMP280;43311;51.196;7.518;2023-09-19T02:58:06;96384.59;;;13.63
57468;BMP280;43311;51.196;7.518;2023-09-19T03:00:33;96380.84;;;13.51
57468;BMP280;43311;51.196;7.518;2023-09-19T03:03:02;96388.31;;;13.53
57468;BMP280;43311;51.196;7.518;2023-09-19T03:05:28;96367.75;;;13.39
57468;BMP280;43311;51.196;7.518;2023-09-19T03:07:56;96382.25;;;13.43
57468;BMP280;43311;51.196;7.518;2023-09-19T03:10:22;96382.25;;;13.43
57468;BMP280;43311;51.196;7.518;2023-09-19T03:12:48;96386.22;;;13.48
57468;BMP280;43311;51.196;7.518;2023-09-19T03:15:15;96379.19;;;13.45
57468;BMP280;43311;51.196;7.518;2023-09-19T03:17:45;96398.31;;;13.58
57468;BMP280;43311;51.196;7.518;2023-09-19T03:20:11;96395.13;;;13.41
57468;BMP280;43311;51.196;7.518;2023-09-19T03:22:38;96402.81;;;13.36
57468;BMP280;43311;51.196;7.518;2023-09-19T03:25:06;96426.50;;;13.36
57468;BMP280;43311;51.196;7.518;2023-09-19T03:27:45;96402.59;;;13.21
57468;BMP280;43311;51.196;7.518;2023-09-19T03:30:12;96404.03;;;13.22
57468;BMP280;43311;51.196;7.518;2023-09-19T03:32:49;96422.78;;;13.24
57468;BMP280;43311;51.196;7.518;2023-09-19T03:35:16;96441.16;;;13.37
57468;BMP280;43311;51.196;7.518;2023-09-19T03:37:42;96432.44;;;13.27
57468;BMP280;43311;51.196;7.518;2023-09-19T03:40:09;96439.00;;;13.23
57468;BMP280;43311;51.196;7.518;2023-09-19T03:42:40;96420.91;;;13.12
57468;BMP280;43311;51.196;7.518;2023-09-19T03:45:07;96415.88;;;13.05
57468;BMP280;43311;51.196;7.518;2023-09-19T03:47:36;96436.50;;;13.19
57468;BMP280;43311;51.196;7.518;2023-09-19T03:50:03;96439.13;;;13.19
57468;BMP280;43311;51.196;7.518;2023-09-19T03:52:28;96437.97;;;13.20
57468;BMP280;43311;51.196;7.518;2023-09-19T03:54:54;96413.19;;;12.97
57468;BMP280;43311;51.196;7.518;2023-09-19T03:57:19;96436.63;;;13.03
57468;BMP280;43311;51.196;7.518;2023-09-19T03:59:46;96411.28;;;12.85
57468;BMP280;43311;51.196;7.518;2023-09-19T04:02:12;96433.28;;;12.91
57468;BMP280;43311;51.196;7.518;2023-09-19T04:04:48;96433.19;;;12.82
57468;BMP280;43311;51.196;7.518;2023-09-19T04:07:14;96431.72;;;12.81
57468;BMP280;43311;51.196;7.518;2023-09-19T04:09:40;96421.41;;;12.74
57468;BMP280;43311;51.196;7.518;2023-09-19T04:12:07;96433.19;;;12.82
57468;BMP280;43311;51.196;7.518;2023-09-19T04:14:34;96410.91;;;12.61
57468;BMP280;43311;51.196;7.518;2023-09-19T04:16:59;96416.56;;;12.60
57468;BMP280;43311;51.196;7.518;2023-09-19T04:19:26;96420.47;;;12.55
57468;BMP280;43311;51.196;7.518;2023-09-19T04:21:51;96409.00;;;12.62
57468;BMP280;43311;51.196;7.518;2023-09-19T04:24:16;96438.03;;;12.71
57468;BMP280;43311;51.196;7.518;2023-09-19T04:26:45;96428.34;;;12.68
57468;BMP280;43311;51.196;7.518;2023-09-19T04:29:10;96435.28;;;12.62
57468;BMP280;43311;51.196;7.518;2023-09-19T04:31:36;96415.44;;;12.48
57468;BMP280;43311;51.196;7.518;2023-09-19T04:34:03;96408.78;;;12.44
57468;BMP280;43311;51.196;7.518;2023-09-19T04:36:28;96416.91;;;12.49
57468;BMP280;43311;51.196;7.518;2023-09-19T04:38:55;96422.38;;;12.67
57468;BMP280;43311;51.196;7.518;2023-09-19T04:41:20;96435.72;;;12.73
57468;BMP280;43311;51.196;7.518;2023-09-19T04:43:47;96402.91;;;12.40
57468;BMP280;43311;51.196;7.518;2023-09-19T04:46:20;96420.59;;;12.52
57468;BMP280;43311;51.196;7.518;2023-09-19T04:48:45;96446.25;;;12.48
57468;BMP280;43311;51.196;7.518;2023-09-19T04:51:11;96448.13;;;12.47
57468;BMP280;43311;51.196;7.518;2023-09-19T04:53:36;96436.47;;;12.36
57468;BMP280;43311;51.196;7.518;2023-09-19T04:56:02;96442.88;;;12.35
57468;BMP280;43311;51.196;7.518;2023-09-19T04:58:29;96448.44;;;12.25
57468;BMP280;43311;51.196;7.518;2023-09-19T05:00:54;96432.03;;;12.08
57468;BMP280;43311;51.196;7.518;2023-09-19T05:03:19;96465.50;;;12.32
57468;BMP280;43311;51.196;7.518;2023-09-19T05:05:46;96458.84;;;12.28
57468;BMP280;43311;51.196;7.518;2023-09-19T05:08:11;96458.84;;;12.28
57468;BMP280;43311;51.196;7.518;2023-09-19T05:10:40;96449.28;;;12.22
57468;BMP280;43311;51.196;7.518;2023-09-19T05:13:06;96439.06;;;12.11
57468;BMP280;43311;51.196;7.518;2023-09-19T05:15:35;96463.69;;;12.17
57468;BMP280;43311;51.196;7.518;2023-09-19T05:18:03;96436.34;;;12.02
57468;BMP280;43311;51.196;7.518;2023-09-19T05:20:29;96449.56;;;12.11
57468;BMP280;43311;51.196;7.518;2023-09-19T05:23:05;96450.44;;;12.08
57468;BMP280;43311;51.196;7.518;2023-09-19T05:25:37;96471.31;;;12.12
57468;BMP280;43311;51.196;7.518;2023-09-19T05:28:03;96468.69;;;11.99
57468;BMP280;43311;51.196;7.518;2023-09-19T05:30:35;96477.34;;;12.12
57468;BMP280;43311;51.196;7.518;2023-09-19T05:33:04;96488.28;;;12.23
57468;BMP280;43311;51.196;7.518;2023-09-19T05:35:31;96486.19;;;12.18
57468;BMP280;43311;51.196;7.518;2023-09-19T05:37:57;96486.72;;;12.26
57468;BMP280;43311;51.196;7.518;2023-09-19T05:40:23;96483.03;;;12.11
57468;BMP280;43311;51.196;7.518;2023-09-19T05:42:49;96479.63;;;12.10
57468;BMP280;43311;51.196;7.518;2023-09-19T05:45:16;96509.13;;;12.30
57468;BMP280;43311;51.196;7.518;2023-09-19T05:47:48;96512.50;;;12.43
57468;BMP280;43311;51.196;7.518;2023-09-19T05:50:14;96501.75;;;12.25
57468;BMP280;43311;51.196;7.518;2023-09-19T05:52:42;96502.59;;;12.22
57468;BMP280;43311;51.196;7.518;2023-09-19T05:55:09;96502.06;;;12.27
57468;BMP280;43311;51.196;7.518;2023-09-19T05:57:36;96514.16;;;12.37
57468;BMP280;43311;51.196;7.518;2023-09-19T06:00:05;96527.13;;;12.44
57468;BMP280;43311;51.196;7.518;2023-09-19T06:02:37;96521.75;;;12.60
57468;BMP280;43311;51.196;7.518;2023-09-19T06:05:06;96509.56;;;12.41
57468;BMP280;43311;51.196;7.518;2023-09-19T06:07:36;96514.94;;;12.50
57468;BMP280;43311;51.196;7.518;2023-09-19T06:10:05;96526.06;;;12.54
57468;BMP280;43311;51.196;7.518;2023-09-19T06:12:32;96527.97;;;12.53
57468;BMP280;43311;51.196;7.518;2023-09-19T06:15:03;96507.88;;;12.47
57468;BMP280;43311;51.196;7.518;2023-09-19T06:17:30;96520.72;;;12.57
57468;BMP280;43311;51.196;7.518;2023-09-19T06:19:59;96537.47;;;12.76
57468;BMP280;43311;51.196;7.518;2023-09-19T06:22:24;96526.41;;;12.56
57468;BMP280;43311;51.196;7.518;2023-09-19T06:24:50;96536.31;;;12.64
57468;BMP280;43311;51.196;7.518;2023-09-19T06:27:15;96532.28;;;12.60
57468;BMP280;43311;51.196;7.518;2023-09-19T06:29:41;96542.50;;;12.70
57468;BMP280;43311;51.196;7.518;2023-09-19T06:32:07;96558.53;;;12.76
57468;BMP280;43311;51.196;7.518;2023-09-19T06:34:34;96551.47;;;12.73
57468;BMP280;43311;51.196;7.518;2023-09-19T06:36:59;96535.66;;;12.73
57468;BMP280;43311;51.196;7.518;2023-09-19T06:39:25;96541.56;;;12.77
57468;BMP280;43311;51.196;7.518;2023-09-19T06:41:51;96549.16;;;12.75
57468;BMP280;43311;51.196;7.518;2023-09-19T06:44:19;96540.00;;;12.79
57468;BMP280;43311;51.196;7.518;2023-09-19T06:46:47;96551.72;;;12.91
57468;BMP280;43311;51.196;7.518;2023-09-19T06:49:15;96528.72;;;12.79
57468;BMP280;43311;51.196;7.518;2023-09-19T06:51:40;96546.19;;;12.85
57468;BMP280;43311;51.196;7.518;2023-09-19T06:54:07;96558.44;;;12.92
57468;BMP280;43311;51.196;7.518;2023-09-19T06:56:32;96532.31;;;12.85
57468;BMP280;43311;51.196;7.518;2023-09-19T06:58:58;96550.34;;;12.98
57468;BMP280;43311;51.196;7.518;2023-09-19T07:01:23;96554.63;;;13.17
57468;BMP280;43311;51.196;7.518;2023-09-19T07:03:50;96566.66;;;13.18
57468;BMP280;43311;51.196;7.518;2023-09-19T07:06:15;96563.19;;;13.21
57468;BMP280;43311;51.196;7.518;2023-09-19T07:08:41;96538.44;;;13.06
57468;BMP280;43311;51.196;7.518;2023-09-19T07:11:06;96559.06;;;13.20
57468;BMP280;43311;51.196;7.518;2023-09-19T07:13:32;96558.53;;;13.25
57468;BMP280;43311;51.196;7.518;2023-09-19T07:16:00;96539.16;;;13.19
57468;BMP280;43311;51.196;7.518;2023-09-19T07:18:26;96542.19;;;13.30
57468;BMP280;43311;51.196;7.518;2023-09-19T07:20:56;96574.81;;;13.45
57468;BMP280;43311;51.196;7.518;2023-09-19T07:23:26;96568.63;;;13.52
57468;BMP280;43311;51.196;7.518;2023-09-19T07:25:52;96572.28;;;13.54
57468;BMP280;43311;51.196;7.518;2023-09-19T07:28:21;96581.25;;;13.57
57468;BMP280;43311;51.196;7.518;2023-09-19T07:30:48;96560.06;;;13.60
57468;BMP280;43311;51.196;7.518;2023-09-19T07:33:20;96541.09;;;13.53
57468;BMP280;43311;51.196;7.518;2023-09-19T07:35:47;96568.25;;;13.74
57468;BMP280;43311;51.196;7.518;2023-09-19T07:38:13;96575.50;;;13.83
57468;BMP280;43311;51.196;7.518;2023-09-19T07:40:38;96567.63;;;13.92
57468;BMP280;43311;51.196;7.518;2023-09-19T07:43:04;96546.19;;;13.81
57468;BMP280;43311;51.196;7.518;2023-09-19T07:45:30;96570.81;;;13.87
57468;BMP280;43311;51.196;7.518;2023-09-19T07:47:56;96575.66;;;13.88
57468;BMP280;43311;51.196;7.518;2023-09-19T07:50:22;96574.06;;;13.91
57468;BMP280;43311;51.196;7.518;2023-09-19T07:52:49;96567.47;;;13.86
57468;BMP280;43311;51.196;7.518;2023-09-19T07:55:16;96572.31;;;13.88
57468;BMP280;43311;51.196;7.518;2023-09-19T07:57:43;96576.59;;;13.94
57468;BMP280;43311;51.196;7.518;2023-09-19T08:00:09;96579.72;;;14.02
57468;BMP280;43311;51.196;7.518;2023-09-19T08:02:42;96568.75;;;14.16
57468;BMP280;43311;51.196;7.518;2023-09-19T08:05:09;96583.44;;;14.26
57468;BMP280;43311;51.196;7.518;2023-09-19T08:07:36;96588.19;;;14.31
57468;BMP280;43311;51.196;7.518;2023-09-19T08:10:05;96580.69;;;14.29
57468;BMP280;43311;51.196;7.518;2023-09-19T08:12:36;96559.03;;;14.13
57468;BMP280;43311;51.196;7.518;2023-09-19T08:15:05;96587.63;;;14.35
57468;BMP280;43311;51.196;7.518;2023-09-19T08:17:35;96565.88;;;14.23
57468;BMP280;43311;51.196;7.518;2023-09-19T08:20:01;96576.69;;;14.25
57468;BMP280;43311;51.196;7.518;2023-09-19T08:22:30;96572.91;;;14.26
57468;BMP280;43311;51.196;7.518;2023-09-19T08:24:57;96556.75;;;14.24
57468;BMP280;43311;51.196;7.518;2023-09-19T08:27:23;96587.94;;;14.37
57468;BMP280;43311;51.196;7.518;2023-09-19T08:29:52;96587.97;;;14.46
57468;BMP280;43311;51.196;7.518;2023-09-19T08:32:18;96593.25;;;14.46
57468;BMP280;43311;51.196;7.518;2023-09-19T08:34:49;96596.28;;;14.36
57468;BMP280;43311;51.196;7.518;2023-09-19T08:37:14;96600.25;;;14.40
57468;BMP280;43311;51.196;7.518;2023-09-19T08:39:39;96596.28;;;14.36
57468;BMP280;43311;51.196;7.518;2023-09-19T08:42:05;96592.56;;;14.55
57468;BMP280;43311;51.196;7.518;2023-09-19T08:44:36;96580.25;;;14.52
57468;BMP280;43311;51.196;7.518;2023-09-19T08:47:09;96593.81;;;14.63
57468;BMP280;43311;51.196;7.518;2023-09-19T08:52:29;96613.91;;;14.69
57468;BMP280;43311;51.196;7.518;2023-09-19T08:55:01;96612.16;;;14.66
57468;BMP280;43311;51.196;7.518;2023-09-19T08:57:33;96594.28;;;14.49
57468;BMP280;43311;51.196;7.518;2023-09-19T08:59:59;96607.72;;;14.63
57468;BMP280;43311;51.196;7.518;2023-09-19T09:02:26;96599.88;;;14.51
57468;BMP280;43311;51.196;7.518;2023-09-19T09:04:53;96613.19;;;14.69
57468;BMP280;43311;51.196;7.518;2023-09-19T09:07:20;96616.31;;;14.76
57468;BMP280;43311;51.196;7.518;2023-09-19T09:09:46;96627.22;;;14.87
57468;BMP280;43311;51.196;7.518;2023-09-19T09:12:14;96618.16;;;14.97
57468;BMP280;43311;51.196;7.518;2023-09-19T09:14:44;96597.63;;;14.92
57468;BMP280;43311;51.196;7.518;2023-09-19T09:17:15;96616.41;;;15.24
57468;BMP280;43311;51.196;7.518;2023-09-19T09:19:42;96610.44;;;15.33
57468;BMP280;43311;51.196;7.518;2023-09-19T09:22:09;96612.97;;;15.45
57468;BMP280;43311;51.196;7.518;2023-09-19T09:24:35;96601.66;;;15.45
57468;BMP280;43311;51.196;7.518;2023-09-19T09:27:06;96615.31;;;15.43
57468;BMP280;43311;51.196;7.518;2023-09-19T09:32:29;96607.09;;;15.41
57468;BMP280;43311;51.196;7.518;2023-09-19T09:34:56;96602.56;;;15.51
57468;BMP280;43311;51.196;7.518;2023-09-19T09:37:22;96598.22;;;15.83
57468;BMP280;43311;51.196;7.518;2023-09-19T09:42:35;96609.41;;;16.23
57468;BMP280;43311;51.196;7.518;2023-09-19T09:45:19;96601.78;;;16.34
57468;BMP280;43311;51.196;7.518;2023-09-19T09:48:03;96609.09;;;16.21
57468;BMP280;43311;51.196;7.518;2023-09-19T09:50:31;96600.44;;;16.30
57468;BMP280;43311;51.196;7.518;2023-09-19T09:56:06;96603.91;;;16.71
57468;BMP280;43311;51.196;7.518;2023-09-19T09:58:38;96587.34;;;16.53
57468;BMP280;43311;51.196;7.518;2023-09-19T10:01:14;96597.34;;;16.58
57468;BMP280;43311;51.196;7.518;2023-09-19T10:03:41;96606.00;;;16.58
57468;BMP280;43311;51.196;7.518;2023-09-19T10:06:15;96594.13;;;16.45
57468;BMP280;43311;51.196;7.518;2023-09-19T10:09:09;96594.41;;;16.47
57468;BMP280;43311;51.196;7.518;2023-09-19T10:11:48;96601.59;;;16.55
57468;BMP280;43311;51.196;7.518;2023-09-19T10:14:25;96598.25;;;16.37
57468;BMP280;43311;51.196;7.518;2023-09-19T10:16:56;96584.16;;;16.31
57468;BMP280;43311;51.196;7.518;2023-09-19T10:22:13;96576.19;;;16.49
57468;BMP280;43311;51.196;7.518;2023-09-19T10:24:47;96590.75;;;16.44
57468;BMP280;43311;51.196;7.518;2023-09-19T10:27:15;96586.78;;;16.31
57468;BMP280;43311;51.196;7.518;2023-09-19T10:29:43;96580.41;;;16.64
57468;BMP280;43311;51.196;7.518;2023-09-19T10:32:10;96583.72;;;16.92
57468;BMP280;43311;51.196;7.518;2023-09-19T10:34:36;96583.19;;;16.70
57468;BMP280;43311;51.196;7.518;2023-09-19T10:37:02;96565.41;;;17.03
57468;BMP280;43311;51.196;7.518;2023-09-19T10:39:32;96572.50;;;17.06
57468;BMP280;43311;51.196;7.518;2023-09-19T10:42:02;96583.34;;;17.08
57468;BMP280;43311;51.196;7.518;2023-09-19T10:44:32;96573.66;;;17.05
57468;BMP280;43311;51.196;7.518;2023-09-19T10:46:58;96580.94;;;17.18
57468;BMP280;43311;51.196;7.518;2023-09-19T10:49:24;96582.28;;;17.55
57468;BMP280;43311;51.196;7.518;2023-09-19T10:51:56;96585.41;;;17.45
57468;BMP280;43311;51.196;7.518;2023-09-19T10:54:27;96569.47;;;17.21
57468;BMP280;43311;51.196;7.518;2023-09-19T10:56:53;96567.25;;;17.20
57468;BMP280;43311;51.196;7.518;2023-09-19T10:59:21;96561.47;;;17.39
57468;BMP280;43311;51.196;7.518;2023-09-19T11:01:51;96568.63;;;17.71
57468;BMP280;43311;51.196;7.518;2023-09-19T11:04:34;96573.78;;;17.89
57468;BMP280;43311;51.196;7.518;2023-09-19T11:07:11;96562.81;;;17.58
57468;BMP280;43311;51.196;7.518;2023-09-19T11:09:51;96570.94;;;17.78
57468;BMP280;43311;51.196;7.518;2023-09-19T11:14:57;96564.03;;;17.72
57468;BMP280;43311;51.196;7.518;2023-09-19T11:17:32;96571.69;;;17.93
57468;BMP280;43311;51.196;7.518;2023-09-19T11:30:33;96569.81;;;18.46
57468;BMP280;43311;51.196;7.518;2023-09-19T11:33:18;96575.13;;;18.46
57468;BMP280;43311;51.196;7.518;2023-09-19T11:46:21;96563.03;;;18.73
57468;BMP280;43311;51.196;7.518;2023-09-19T11:48:51;96551.13;;;18.69
57468;BMP280;43311;51.196;7.518;2023-09-19T11:51:22;96555.31;;;18.75
57468;BMP280;43311;51.196;7.518;2023-09-19T11:53:58;96562.56;;;18.46
57468;BMP280;43311;51.196;7.518;2023-09-19T11:56:28;96570.25;;;18.73
57468;BMP280;43311;51.196;7.518;2023-09-19T11:58:55;96579.31;;;18.95
57468;BMP280;43311;51.196;7.518;2023-09-19T12:01:23;96572.47;;;18.74
57468;BMP280;43311;51.196;7.518;2023-09-19T12:03:52;96579.59;;;18.40
57468;BMP280;43311;51.196;7.518;2023-09-19T12:06:18;96577.78;;;18.60
57468;BMP280;43311;51.196;7.518;2023-09-19T12:08:44;96571.19;;;18.55
57468;BMP280;43311;51.196;7.518;2023-09-19T12:11:13;96569.53;;;18.72
57468;BMP280;43311;51.196;7.518;2023-09-19T12:13:46;96577.50;;;18.72
57468;BMP280;43311;51.196;7.518;2023-09-19T12:16:20;96571.06;;;18.64
57468;BMP280;43311;51.196;7.518;2023-09-19T12:18:48;96574.28;;;18.68
57468;BMP280;43311;51.196;7.518;2023-09-19T12:24:00;96571.28;;;18.47
57468;BMP280;43311;51.196;7.518;2023-09-19T12:26:30;96570.72;;;18.57
57468;BMP280;43311;51.196;7.518;2023-09-19T12:29:02;96570.78;;;18.19
57468;BMP280;43311;51.196;7.518;2023-09-19T12:31:30;96552.41;;;17.92
57468;BMP280;43311;51.196;7.518;2023-09-19T12:34:01;96589.44;;;17.87
57468;BMP280;43311;51.196;7.518;2023-09-19T12:36:27;96553.66;;;17.59
57468;BMP280;43311;51.196;7.518;2023-09-19T12:38:58;96553.97;;;17.61
57468;BMP280;43311;51.196;7.518;2023-09-19T12:41:24;96551.19;;;17.79
57468;BMP280;43311;51.196;7.518;2023-09-19T12:43:52;96533.44;;;17.85
57468;BMP280;43311;51.196;7.518;2023-09-19T12:46:21;96551.13;;;18.02
57468;BMP280;43311;51.196;7.518;2023-09-19T12:49:15;96545.66;;;18.06
57468;BMP280;43311;51.196;7.518;2023-09-19T12:51:42;96534.84;;;17.95
57468;BMP280;43311;51.196;7.518;2023-09-19T12:54:09;96536.06;;;18.08
57468;BMP280;43311;51.196;7.518;2023-09-19T12:56:43;96545.09;;;18.40
57468;BMP280;43311;51.196;7.518;2023-09-19T12:59:14;96541.31;;;18.32
57468;BMP280;43311;51.196;7.518;2023-09-19T13:01:41;96543.84;;;18.12
57468;BMP280;43311;51.196;7.518;2023-09-19T13:04:19;96536.50;;;18.07
57468;BMP280;43311;51.196;7.518;2023-09-19T13:06:49;96528.22;;;18.28
57468;BMP280;43311;51.196;7.518;2023-09-19T13:09:20;96513.59;;;18.33
57468;BMP280;43311;51.196;7.518;2023-09-19T13:11:46;96513.22;;;18.40
57468;BMP280;43311;51.196;7.518;2023-09-19T13:14:23;96522.38;;;18.39
57468;BMP280;43311;51.196;7.518;2023-09-19T13:19:42;96514.13;;;18.22
57468;BMP280;43311;51.196;7.518;2023-09-19T13:22:41;96524.56;;;18.26
57468;BMP280;43311;51.196;7.518;2023-09-19T13:25:09;96525.47;;;18.23
57468;BMP280;43311;51.196;7.518;2023-09-19T13:27:46;96522.38;;;18.39
57468;BMP280;43311;51.196;7.518;2023-09-19T13:30:13;96522.25;;;18.48
57468;BMP280;43311;51.196;7.518;2023-09-19T13:32:39;96521.53;;;18.61
57468;BMP280;43311;51.196;7.518;2023-09-19T13:35:06;96524.00;;;18.65
57468;BMP280;43311;51.196;7.518;2023-09-19T13:37:34;96509.97;;;18.64
57468;BMP280;43311;51.196;7.518;2023-09-19T13:40:13;96500.94;;;18.56
57468;BMP280;43311;51.196;7.518;2023-09-19T13:42:39;96497.97;;;18.83
57468;BMP280;43311;51.196;7.518;2023-09-19T13:45:06;96508.84;;;19.00
57468;BMP280;43311;51.196;7.518;2023-09-19T13:47:36;96517.06;;;19.16
57468;BMP280;43311;51.196;7.518;2023-09-19T13:50:04;96518.25;;;19.15
57468;BMP280;43311;51.196;7.518;2023-09-19T13:52:31;96521.47;;;19.39
57468;BMP280;43311;51.196;7.518;2023-09-19T13:54:57;96512.53;;;19.22
57468;BMP280;43311;51.196;7.518;2023-09-19T13:57:24;96511.63;;;19.25
57468;BMP280;43311;51.196;7.518;2023-09-19T13:59:50;96508.56;;;18.98
57468;BMP280;43311;51.196;7.518;2023-09-19T14:02:17;96522.88;;;18.86
57468;BMP280;43311;51.196;7.518;2023-09-19T14:04:44;96520.16;;;18.80
57468;BMP280;43311;51.196;7.518;2023-09-19T14:07:09;96515.28;;;18.64
57468;BMP280;43311;51.196;7.518;2023-09-19T14:09:36;96521.16;;;18.83
57468;BMP280;43311;51.196;7.518;2023-09-19T14:12:02;96530.78;;;18.80
57468;BMP280;43311;51.196;7.518;2023-09-19T14:14:28;96511.44;;;18.65
57468;BMP280;43311;51.196;7.518;2023-09-19T14:16:53;96509.53;;;18.66
57468;BMP280;43311;51.196;7.518;2023-09-19T14:19:19;96511.81;;;18.58
57468;BMP280;43311;51.196;7.518;2023-09-19T14:21:44;96509.31;;;18.84
57468;BMP280;43311;51.196;7.518;2023-09-19T14:24:10;96516.09;;;18.85
57468;BMP280;43311;51.196;7.518;2023-09-19T14:26:37;96514.03;;;18.60
57468;BMP280;43311;51.196;7.518;2023-09-19T14:29:02;96513.56;;;18.61
57468;BMP280;43311;51.196;7.518;2023-09-19T14:31:28;96508.91;;;18.56
57468;BMP280;43311;51.196;7.518;2023-09-19T14:33:57;96512.13;;;18.46
57468;BMP280;43311;51.196;7.518;2023-09-19T14:36:23;96530.81;;;18.52
57468;BMP280;43311;51.196;7.518;2023-09-19T14:38:52;96513.22;;;18.40
57468;BMP280;43311;51.196;7.518;2023-09-19T14:41:19;96507.34;;;18.36
57468;BMP280;43311;51.196;7.518;2023-09-19T14:43:44;96521.19;;;18.40
57468;BMP280;43311;51.196;7.518;2023-09-19T14:46:10;96524.00;;;18.22
57468;BMP280;43311;51.196;7.518;2023-09-19T14:48:36;96525.81;;;18.16
57468;BMP280;43311;51.196;7.518;2023-09-19T14:51:08;96528.00;;;18.17
57468;BMP280;43311;51.196;7.518;2023-09-19T14:53:34;96521.69;;;18.15
57468;BMP280;43311;51.196;7.518;2023-09-19T14:56:04;96524.88;;;18.04
57468;BMP280;43311;51.196;7.518;2023-09-19T14:58:33;96513.53;;;18.04
57468;BMP280;43311;51.196;7.518;2023-09-19T15:01:12;96525.16;;;18.06
57468;BMP280;43311;51.196;7.518;2023-09-19T15:03:39;96517.00;;;18.10